sensor_id;sensor_type;location;lat;lon;timestamp;P1;durP1;ratioP1;P2;durP2;ratioP2
71570;SDS011;59407;42.682;23.322;2023-07-31T00:00:59;3.90;;;1.80;;
71570;SDS011;59407;42.682;23.322;2023-07-31T00:03:25;3.80;;;1.90;;
71570;SDS011;59407;42.682;23.322;2023-07-31T00:05:52;3.63;;;2.22;;
71570;SDS011;59407;42.682;23.322;2023-07-31T00:08:17;3.53;;;1.70;;
71570;SDS011;59407;42.682;23.322;2023-07-31T00:10:43;4.93;;;1.60;;
71570;SDS011;59407;42.682;23.322;2023-07-31T00:13:08;3.25;;;1.77;;
71570;SDS011;59407;42.682;23.322;2023-07-31T00:15:34;4.60;;;2.07;;
71570;SDS011;59407;42.682;23.322;2023-07-31T00:17:59;4.30;;;2.37;;
71570;SDS011;59407;42.682;23.322;2023-07-31T00:20:26;4.30;;;2.00;;
71570;SDS011;59407;42.682;23.322;2023-07-31T00:22:51;3.80;;;1.93;;
71570;SDS011;59407;42.682;23.322;2023-07-31T00:25:17;4.10;;;2.30;;
71570;SDS011;59407;42.682;23.322;2023-07-31T00:27:43;4.22;;;2.17;;
71570;SDS011;59407;42.682;23.322;2023-07-31T00:30:09;4.47;;;2.28;;
71570;SDS011;59407;42.682;23.322;2023-07-31T00:32:37;4.60;;;2.40;;
71570;SDS011;59407;42.682;23.322;2023-07-31T00:35:02;5.50;;;2.43;;
71570;SDS011;59407;42.682;23.322;2023-07-31T00:37:28;4.75;;;2.60;;
71570;SDS011;59407;42.682;23.322;2023-07-31T00:39:53;4.23;;;2.70;;
71570;SDS011;59407;42.682;23.322;2023-07-31T00:42:19;4.50;;;2.47;;
71570;SDS011;59407;42.682;23.322;2023-07-31T00:44:44;4.25;;;2.65;;
71570;SDS011;59407;42.682;23.322;2023-07-31T00:47:09;6.80;;;2.80;;
71570;SDS011;59407;42.682;23.322;2023-07-31T00:49:35;4.73;;;2.70;;
71570;SDS011;59407;42.682;23.322;2023-07-31T00:52:00;5.37;;;3.43;;
71570;SDS011;59407;42.682;23.322;2023-07-31T00:54:27;8.20;;;3.72;;
71570;SDS011;59407;42.682;23.322;2023-07-31T00:56:53;7.15;;;3.88;;
71570;SDS011;59407;42.682;23.322;2023-07-31T00:59:19;6.28;;;3.83;;
71570;SDS011;59407;42.682;23.322;2023-07-31T01:01:45;6.60;;;3.63;;
71570;SDS011;59407;42.682;23.322;2023-07-31T01:04:11;7.32;;;3.65;;
71570;SDS011;59407;42.682;23.322;2023-07-31T01:09:53;7.07;;;4.22;;
71570;SDS011;59407;42.682;23.322;2023-07-31T01:12:30;6.65;;;4.18;;
71570;SDS011;59407;42.682;23.322;2023-07-31T01:17:31;8.00;;;4.93;;
71570;SDS011;59407;42.682;23.322;2023-07-31T01:19:59;8.23;;;4.13;;
71570;SDS011;59407;42.682;23.322;2023-07-31T01:28:05;9.40;;;5.05;;
71570;SDS011;59407;42.682;23.322;2023-07-31T01:30:33;11.80;;;6.57;;
71570;SDS011;59407;42.682;23.322;2023-07-31T01:33:00;11.00;;;6.10;;
71570;SDS011;59407;42.682;23.322;2023-07-31T01:35:31;11.65;;;6.25;;
71570;SDS011;59407;42.682;23.322;2023-07-31T01:37:57;9.88;;;6.18;;
71570;SDS011;59407;42.682;23.322;2023-07-31T01:40:23;10.80;;;6.70;;
71570;SDS011;59407;42.682;23.322;2023-07-31T01:42:48;11.90;;;6.60;;
71570;SDS011;59407;42.682;23.322;2023-07-31T01:45:14;13.00;;;7.90;;
71570;SDS011;59407;42.682;23.322;2023-07-31T01:47:39;12.20;;;7.53;;
71570;SDS011;59407;42.682;23.322;2023-07-31T01:50:05;14.70;;;8.73;;
71570;SDS011;59407;42.682;23.322;2023-07-31T01:52:31;15.10;;;8.55;;
71570;SDS011;59407;42.682;23.322;2023-07-31T01:54:56;13.53;;;7.57;;
71570;SDS011;59407;42.682;23.322;2023-07-31T01:57:21;14.80;;;8.43;;
71570;SDS011;59407;42.682;23.322;2023-07-31T01:59:47;18.33;;;10.07;;
71570;SDS011;59407;42.682;23.322;2023-07-31T02:02:12;15.87;;;8.83;;
71570;SDS011;59407;42.682;23.322;2023-07-31T02:04:38;17.27;;;9.10;;
71570;SDS011;59407;42.682;23.322;2023-07-31T02:07:04;16.42;;;9.05;;
71570;SDS011;59407;42.682;23.322;2023-07-31T02:09:30;16.80;;;9.50;;
71570;SDS011;59407;42.682;23.322;2023-07-31T02:11:55;17.27;;;9.63;;
71570;SDS011;59407;42.682;23.322;2023-07-31T02:14:21;16.23;;;9.23;;
71570;SDS011;59407;42.682;23.322;2023-07-31T02:16:47;17.33;;;9.43;;
71570;SDS011;59407;42.682;23.322;2023-07-31T02:19:13;17.85;;;9.88;;
71570;SDS011;59407;42.682;23.322;2023-07-31T02:21:38;15.73;;;9.60;;
71570;SDS011;59407;42.682;23.322;2023-07-31T02:24:03;15.30;;;9.47;;
71570;SDS011;59407;42.682;23.322;2023-07-31T02:26:29;17.30;;;9.63;;
71570;SDS011;59407;42.682;23.322;2023-07-31T02:28:55;15.10;;;8.57;;
71570;SDS011;59407;42.682;23.322;2023-07-31T02:31:20;17.53;;;9.43;;
71570;SDS011;59407;42.682;23.322;2023-07-31T02:33:45;17.35;;;10.10;;
71570;SDS011;59407;42.682;23.322;2023-07-31T02:36:11;17.37;;;10.03;;
71570;SDS011;59407;42.682;23.322;2023-07-31T02:38:36;16.90;;;9.20;;
71570;SDS011;59407;42.682;23.322;2023-07-31T02:41:02;17.50;;;9.57;;
71570;SDS011;59407;42.682;23.322;2023-07-31T02:43:27;18.53;;;9.97;;
71570;SDS011;59407;42.682;23.322;2023-07-31T02:45:53;15.15;;;8.95;;
71570;SDS011;59407;42.682;23.322;2023-07-31T02:48:18;18.07;;;9.33;;
71570;SDS011;59407;42.682;23.322;2023-07-31T02:50:44;17.27;;;9.63;;
71570;SDS011;59407;42.682;23.322;2023-07-31T02:53:11;16.77;;;10.30;;
71570;SDS011;59407;42.682;23.322;2023-07-31T02:55:36;15.63;;;8.77;;
71570;SDS011;59407;42.682;23.322;2023-07-31T02:58:02;16.37;;;9.47;;
71570;SDS011;59407;42.682;23.322;2023-07-31T03:00:27;15.77;;;9.40;;
71570;SDS011;59407;42.682;23.322;2023-07-31T03:02:53;14.93;;;8.90;;
71570;SDS011;59407;42.682;23.322;2023-07-31T03:05:19;17.43;;;9.83;;
71570;SDS011;59407;42.682;23.322;2023-07-31T03:07:44;14.52;;;8.60;;
71570;SDS011;59407;42.682;23.322;2023-07-31T03:10:12;17.67;;;9.47;;
71570;SDS011;59407;42.682;23.322;2023-07-31T03:12:37;17.85;;;8.65;;
71570;SDS011;59407;42.682;23.322;2023-07-31T03:15:03;14.77;;;8.80;;
71570;SDS011;59407;42.682;23.322;2023-07-31T03:17:29;19.17;;;10.43;;
71570;SDS011;59407;42.682;23.322;2023-07-31T03:19:54;18.03;;;9.07;;
71570;SDS011;59407;42.682;23.322;2023-07-31T03:22:21;17.07;;;9.50;;
71570;SDS011;59407;42.682;23.322;2023-07-31T03:24:46;15.27;;;8.95;;
71570;SDS011;59407;42.682;23.322;2023-07-31T03:27:12;17.23;;;9.03;;
71570;SDS011;59407;42.682;23.322;2023-07-31T03:29:37;17.40;;;9.37;;
71570;SDS011;59407;42.682;23.322;2023-07-31T03:32:02;15.57;;;9.10;;
71570;SDS011;59407;42.682;23.322;2023-07-31T03:34:28;15.80;;;8.90;;
71570;SDS011;59407;42.682;23.322;2023-07-31T03:36:54;15.70;;;9.10;;
71570;SDS011;59407;42.682;23.322;2023-07-31T03:39:20;16.67;;;10.05;;
71570;SDS011;59407;42.682;23.322;2023-07-31T03:41:46;17.65;;;9.43;;
71570;SDS011;59407;42.682;23.322;2023-07-31T03:44:11;20.47;;;10.20;;
71570;SDS011;59407;42.682;23.322;2023-07-31T03:46:37;17.70;;;9.02;;
71570;SDS011;59407;42.682;23.322;2023-07-31T03:49:04;15.20;;;9.23;;
71570;SDS011;59407;42.682;23.322;2023-07-31T03:51:29;16.43;;;9.57;;
71570;SDS011;59407;42.682;23.322;2023-07-31T03:53:55;15.17;;;9.40;;
71570;SDS011;59407;42.682;23.322;2023-07-31T03:56:20;17.07;;;9.60;;
71570;SDS011;59407;42.682;23.322;2023-07-31T03:58:46;17.37;;;10.07;;
71570;SDS011;59407;42.682;23.322;2023-07-31T04:01:11;17.67;;;9.80;;
71570;SDS011;59407;42.682;23.322;2023-07-31T04:03:37;15.63;;;8.67;;
71570;SDS011;59407;42.682;23.322;2023-07-31T04:06:04;17.92;;;9.38;;
71570;SDS011;59407;42.682;23.322;2023-07-31T04:08:29;18.60;;;10.70;;
71570;SDS011;59407;42.682;23.322;2023-07-31T04:10:55;18.27;;;9.87;;
71570;SDS011;59407;42.682;23.322;2023-07-31T04:13:21;18.23;;;9.45;;
71570;SDS011;59407;42.682;23.322;2023-07-31T04:15:48;15.30;;;8.77;;
71570;SDS011;59407;42.682;23.322;2023-07-31T04:18:15;18.70;;;9.50;;
71570;SDS011;59407;42.682;23.322;2023-07-31T04:20:41;15.10;;;8.40;;
71570;SDS011;59407;42.682;23.322;2023-07-31T04:23:06;17.63;;;9.80;;
71570;SDS011;59407;42.682;23.322;2023-07-31T04:25:31;16.87;;;9.23;;
71570;SDS011;59407;42.682;23.322;2023-07-31T04:27:59;18.25;;;9.70;;
71570;SDS011;59407;42.682;23.322;2023-07-31T04:30:25;15.70;;;8.82;;
71570;SDS011;59407;42.682;23.322;2023-07-31T04:32:52;15.53;;;9.10;;
71570;SDS011;59407;42.682;23.322;2023-07-31T04:35:18;18.00;;;10.10;;
71570;SDS011;59407;42.682;23.322;2023-07-31T04:37:43;17.97;;;10.10;;
71570;SDS011;59407;42.682;23.322;2023-07-31T04:40:11;17.50;;;9.65;;
71570;SDS011;59407;42.682;23.322;2023-07-31T04:42:37;19.40;;;10.17;;
71570;SDS011;59407;42.682;23.322;2023-07-31T04:45:02;16.57;;;9.40;;
71570;SDS011;59407;42.682;23.322;2023-07-31T04:47:28;17.05;;;9.35;;
71570;SDS011;59407;42.682;23.322;2023-07-31T04:49:53;17.67;;;9.53;;
71570;SDS011;59407;42.682;23.322;2023-07-31T04:52:18;15.40;;;9.23;;
71570;SDS011;59407;42.682;23.322;2023-07-31T04:54:44;17.27;;;9.27;;
71570;SDS011;59407;42.682;23.322;2023-07-31T04:57:10;16.88;;;9.15;;
71570;SDS011;59407;42.682;23.322;2023-07-31T04:59:35;15.13;;;8.40;;
71570;SDS011;59407;42.682;23.322;2023-07-31T05:02:01;20.85;;;10.23;;
71570;SDS011;59407;42.682;23.322;2023-07-31T05:04:27;15.27;;;8.05;;
71570;SDS011;59407;42.682;23.322;2023-07-31T05:06:52;16.07;;;8.93;;
71570;SDS011;59407;42.682;23.322;2023-07-31T05:09:18;18.30;;;9.47;;
71570;SDS011;59407;42.682;23.322;2023-07-31T05:11:43;20.00;;;8.37;;
71570;SDS011;59407;42.682;23.322;2023-07-31T05:14:09;16.47;;;8.73;;
71570;SDS011;59407;42.682;23.322;2023-07-31T05:16:34;17.05;;;8.35;;
71570;SDS011;59407;42.682;23.322;2023-07-31T05:18:59;13.53;;;7.80;;
71570;SDS011;59407;42.682;23.322;2023-07-31T05:21:25;12.50;;;6.93;;
71570;SDS011;59407;42.682;23.322;2023-07-31T05:23:50;13.73;;;8.03;;
71570;SDS011;59407;42.682;23.322;2023-07-31T05:26:16;11.77;;;6.85;;
71570;SDS011;59407;42.682;23.322;2023-07-31T05:28:41;12.60;;;7.57;;
71570;SDS011;59407;42.682;23.322;2023-07-31T05:31:07;15.87;;;8.40;;
71570;SDS011;59407;42.682;23.322;2023-07-31T05:33:32;11.97;;;6.60;;
71570;SDS011;59407;42.682;23.322;2023-07-31T05:35:58;11.25;;;6.00;;
71570;SDS011;59407;42.682;23.322;2023-07-31T05:38:24;10.13;;;6.28;;
71570;SDS011;59407;42.682;23.322;2023-07-31T05:40:49;6.97;;;4.50;;
71570;SDS011;59407;42.682;23.322;2023-07-31T05:43:15;10.20;;;6.00;;
71570;SDS011;59407;42.682;23.322;2023-07-31T05:45:43;9.02;;;4.80;;
71570;SDS011;59407;42.682;23.322;2023-07-31T05:48:09;8.63;;;5.40;;
71570;SDS011;59407;42.682;23.322;2023-07-31T05:50:34;8.10;;;4.03;;
71570;SDS011;59407;42.682;23.322;2023-07-31T05:53:00;7.03;;;4.17;;
71570;SDS011;59407;42.682;23.322;2023-07-31T05:55:25;10.10;;;5.88;;
71570;SDS011;59407;42.682;23.322;2023-07-31T05:57:52;9.00;;;4.93;;
71570;SDS011;59407;42.682;23.322;2023-07-31T06:00:19;7.97;;;5.07;;
71570;SDS011;59407;42.682;23.322;2023-07-31T06:02:45;8.00;;;5.05;;
71570;SDS011;59407;42.682;23.322;2023-07-31T06:05:12;8.27;;;5.20;;
71570;SDS011;59407;42.682;23.322;2023-07-31T06:07:39;9.43;;;4.63;;
71570;SDS011;59407;42.682;23.322;2023-07-31T06:10:05;6.17;;;3.70;;
71570;SDS011;59407;42.682;23.322;2023-07-31T06:12:31;5.57;;;3.38;;
71570;SDS011;59407;42.682;23.322;2023-07-31T06:15:00;6.43;;;3.30;;
71570;SDS011;59407;42.682;23.322;2023-07-31T06:17:26;5.97;;;3.10;;
71570;SDS011;59407;42.682;23.322;2023-07-31T06:19:52;6.03;;;3.60;;
71570;SDS011;59407;42.682;23.322;2023-07-31T06:22:18;6.50;;;2.73;;
71570;SDS011;59407;42.682;23.322;2023-07-31T06:24:43;4.60;;;2.50;;
71570;SDS011;59407;42.682;23.322;2023-07-31T06:27:09;5.53;;;2.83;;
71570;SDS011;59407;42.682;23.322;2023-07-31T06:29:36;4.18;;;2.30;;
71570;SDS011;59407;42.682;23.322;2023-07-31T06:32:02;5.47;;;2.58;;
71570;SDS011;59407;42.682;23.322;2023-07-31T06:34:27;4.60;;;2.67;;
71570;SDS011;59407;42.682;23.322;2023-07-31T06:36:53;4.20;;;2.07;;
71570;SDS011;59407;42.682;23.322;2023-07-31T06:39:18;4.77;;;2.20;;
71570;SDS011;59407;42.682;23.322;2023-07-31T06:41:44;4.82;;;2.80;;
71570;SDS011;59407;42.682;23.322;2023-07-31T06:44:10;4.27;;;2.10;;
71570;SDS011;59407;42.682;23.322;2023-07-31T06:46:36;4.80;;;2.17;;
71570;SDS011;59407;42.682;23.322;2023-07-31T06:49:01;4.80;;;2.47;;
71570;SDS011;59407;42.682;23.322;2023-07-31T06:51:28;5.47;;;2.70;;
71570;SDS011;59407;42.682;23.322;2023-07-31T06:53:56;3.95;;;2.03;;
71570;SDS011;59407;42.682;23.322;2023-07-31T06:56:23;4.85;;;1.95;;
71570;SDS011;59407;42.682;23.322;2023-07-31T06:58:49;4.13;;;2.20;;
71570;SDS011;59407;42.682;23.322;2023-07-31T07:01:14;3.85;;;1.40;;
71570;SDS011;59407;42.682;23.322;2023-07-31T07:03:40;4.10;;;2.53;;
71570;SDS011;59407;42.682;23.322;2023-07-31T07:06:05;4.17;;;2.10;;
71570;SDS011;59407;42.682;23.322;2023-07-31T07:08:32;4.95;;;2.17;;
71570;SDS011;59407;42.682;23.322;2023-07-31T07:11:02;4.05;;;1.98;;
71570;SDS011;59407;42.682;23.322;2023-07-31T07:13:28;3.65;;;1.80;;
71570;SDS011;59407;42.682;23.322;2023-07-31T07:15:54;5.30;;;2.37;;
71570;SDS011;59407;42.682;23.322;2023-07-31T07:18:20;3.70;;;2.08;;
71570;SDS011;59407;42.682;23.322;2023-07-31T07:20:50;5.67;;;2.57;;
71570;SDS011;59407;42.682;23.322;2023-07-31T07:23:16;4.85;;;2.08;;
71570;SDS011;59407;42.682;23.322;2023-07-31T07:25:42;3.47;;;1.67;;
71570;SDS011;59407;42.682;23.322;2023-07-31T07:28:08;4.18;;;2.30;;
71570;SDS011;59407;42.682;23.322;2023-07-31T07:30:33;4.43;;;2.33;;
71570;SDS011;59407;42.682;23.322;2023-07-31T07:32:59;4.40;;;2.50;;
71570;SDS011;59407;42.682;23.322;2023-07-31T07:35:25;4.10;;;2.27;;
71570;SDS011;59407;42.682;23.322;2023-07-31T07:37:50;4.60;;;2.03;;
71570;SDS011;59407;42.682;23.322;2023-07-31T07:40:15;6.33;;;2.30;;
71570;SDS011;59407;42.682;23.322;2023-07-31T07:42:41;4.47;;;2.40;;
71570;SDS011;59407;42.682;23.322;2023-07-31T07:45:06;4.43;;;2.40;;
71570;SDS011;59407;42.682;23.322;2023-07-31T07:47:32;3.60;;;1.77;;
71570;SDS011;59407;42.682;23.322;2023-07-31T07:49:58;4.70;;;2.33;;
71570;SDS011;59407;42.682;23.322;2023-07-31T07:52:24;4.63;;;2.20;;
71570;SDS011;59407;42.682;23.322;2023-07-31T07:54:50;3.30;;;1.60;;
71570;SDS011;59407;42.682;23.322;2023-07-31T07:57:15;2.97;;;1.40;;
71570;SDS011;59407;42.682;23.322;2023-07-31T07:59:42;3.37;;;1.40;;
71570;SDS011;59407;42.682;23.322;2023-07-31T08:02:07;4.63;;;1.25;;
71570;SDS011;59407;42.682;23.322;2023-07-31T08:04:33;3.43;;;1.70;;
71570;SDS011;59407;42.682;23.322;2023-07-31T08:06:59;4.13;;;1.65;;
71570;SDS011;59407;42.682;23.322;2023-07-31T08:09:25;4.10;;;1.83;;
71570;SDS011;59407;42.682;23.322;2023-07-31T08:11:50;2.70;;;1.10;;
71570;SDS011;59407;42.682;23.322;2023-07-31T08:14:16;5.53;;;1.70;;
71570;SDS011;59407;42.682;23.322;2023-07-31T08:16:41;3.53;;;2.03;;
71570;SDS011;59407;42.682;23.322;2023-07-31T08:19:07;3.72;;;1.80;;
71570;SDS011;59407;42.682;23.322;2023-07-31T08:21:33;4.27;;;1.90;;
71570;SDS011;59407;42.682;23.322;2023-07-31T08:23:58;4.28;;;2.00;;
71570;SDS011;59407;42.682;23.322;2023-07-31T08:26:23;4.13;;;1.90;;
71570;SDS011;59407;42.682;23.322;2023-07-31T08:28:50;3.70;;;1.73;;
71570;SDS011;59407;42.682;23.322;2023-07-31T08:31:15;3.27;;;1.80;;
71570;SDS011;59407;42.682;23.322;2023-07-31T08:33:41;4.10;;;1.90;;
71570;SDS011;59407;42.682;23.322;2023-07-31T08:36:06;4.33;;;2.27;;
71570;SDS011;59407;42.682;23.322;2023-07-31T08:38:32;3.72;;;2.00;;
71570;SDS011;59407;42.682;23.322;2023-07-31T08:40:57;3.83;;;1.90;;
71570;SDS011;59407;42.682;23.322;2023-07-31T08:43:26;3.50;;;1.83;;
71570;SDS011;59407;42.682;23.322;2023-07-31T08:45:52;3.47;;;1.70;;
71570;SDS011;59407;42.682;23.322;2023-07-31T08:48:19;3.13;;;1.50;;
71570;SDS011;59407;42.682;23.322;2023-07-31T08:50:46;3.03;;;1.45;;
71570;SDS011;59407;42.682;23.322;2023-07-31T08:53:11;5.03;;;1.90;;
71570;SDS011;59407;42.682;23.322;2023-07-31T08:55:38;4.28;;;1.63;;
71570;SDS011;59407;42.682;23.322;2023-07-31T08:58:03;3.63;;;1.40;;
71570;SDS011;59407;42.682;23.322;2023-07-31T09:00:29;3.55;;;1.70;;
71570;SDS011;59407;42.682;23.322;2023-07-31T09:03:00;2.90;;;1.55;;
71570;SDS011;59407;42.682;23.322;2023-07-31T09:05:28;6.00;;;1.63;;
71570;SDS011;59407;42.682;23.322;2023-07-31T09:07:55;3.60;;;1.33;;
71570;SDS011;59407;42.682;23.322;2023-07-31T09:10:21;3.28;;;1.27;;
71570;SDS011;59407;42.682;23.322;2023-07-31T09:12:46;3.70;;;1.70;;
71570;SDS011;59407;42.682;23.322;2023-07-31T09:15:13;3.53;;;1.40;;
71570;SDS011;59407;42.682;23.322;2023-07-31T09:17:41;4.55;;;1.52;;
71570;SDS011;59407;42.682;23.322;2023-07-31T09:20:13;3.90;;;1.77;;
71570;SDS011;59407;42.682;23.322;2023-07-31T09:22:39;3.65;;;1.65;;
71570;SDS011;59407;42.682;23.322;2023-07-31T09:25:15;3.53;;;1.37;;
71570;SDS011;59407;42.682;23.322;2023-07-31T09:27:48;4.20;;;1.80;;
71570;SDS011;59407;42.682;23.322;2023-07-31T09:30:17;3.67;;;1.63;;
71570;SDS011;59407;42.682;23.322;2023-07-31T09:32:45;3.47;;;1.50;;
71570;SDS011;59407;42.682;23.322;2023-07-31T09:37:55;3.35;;;1.50;;
71570;SDS011;59407;42.682;23.322;2023-07-31T09:40:30;3.35;;;1.40;;
71570;SDS011;59407;42.682;23.322;2023-07-31T09:42:57;3.00;;;1.50;;
71570;SDS011;59407;42.682;23.322;2023-07-31T09:45:26;5.00;;;1.63;;
71570;SDS011;59407;42.682;23.322;2023-07-31T09:47:53;4.00;;;1.73;;
71570;SDS011;59407;42.682;23.322;2023-07-31T09:50:19;3.47;;;1.98;;
71570;SDS011;59407;42.682;23.322;2023-07-31T09:52:46;4.45;;;1.50;;
71570;SDS011;59407;42.682;23.322;2023-07-31T09:55:11;3.10;;;1.50;;
71570;SDS011;59407;42.682;23.322;2023-07-31T09:57:39;2.72;;;1.13;;
71570;SDS011;59407;42.682;23.322;2023-07-31T10:00:05;3.22;;;1.40;;
71570;SDS011;59407;42.682;23.322;2023-07-31T10:02:34;3.58;;;1.33;;
71570;SDS011;59407;42.682;23.322;2023-07-31T10:05:02;3.03;;;1.00;;
71570;SDS011;59407;42.682;23.322;2023-07-31T10:07:28;2.80;;;1.10;;
71570;SDS011;59407;42.682;23.322;2023-07-31T10:09:57;2.20;;;1.02;;
71570;SDS011;59407;42.682;23.322;2023-07-31T10:12:25;2.53;;;1.00;;
71570;SDS011;59407;42.682;23.322;2023-07-31T10:14:53;2.95;;;1.20;;
71570;SDS011;59407;42.682;23.322;2023-07-31T10:17:21;3.90;;;1.30;;
71570;SDS011;59407;42.682;23.322;2023-07-31T10:19:49;3.53;;;1.10;;
71570;SDS011;59407;42.682;23.322;2023-07-31T10:22:15;2.90;;;1.20;;
71570;SDS011;59407;42.682;23.322;2023-07-31T10:24:44;2.50;;;1.13;;
71570;SDS011;59407;42.682;23.322;2023-07-31T10:27:16;2.30;;;0.95;;
71570;SDS011;59407;42.682;23.322;2023-07-31T10:29:43;3.58;;;1.30;;
71570;SDS011;59407;42.682;23.322;2023-07-31T10:32:10;2.60;;;1.00;;
71570;SDS011;59407;42.682;23.322;2023-07-31T10:34:36;3.17;;;1.20;;
71570;SDS011;59407;42.682;23.322;2023-07-31T10:42:47;2.78;;;1.10;;
71570;SDS011;59407;42.682;23.322;2023-07-31T10:48:01;2.75;;;1.10;;
71570;SDS011;59407;42.682;23.322;2023-07-31T10:50:27;3.10;;;1.55;;
71570;SDS011;59407;42.682;23.322;2023-07-31T10:52:55;2.50;;;1.20;;
71570;SDS011;59407;42.682;23.322;2023-07-31T10:55:42;2.80;;;1.10;;
71570;SDS011;59407;42.682;23.322;2023-07-31T10:58:12;2.57;;;0.83;;
71570;SDS011;59407;42.682;23.322;2023-07-31T11:00:38;2.60;;;1.00;;
71570;SDS011;59407;42.682;23.322;2023-07-31T11:03:05;2.40;;;0.93;;
71570;SDS011;59407;42.682;23.322;2023-07-31T11:08:27;2.60;;;0.98;;
71570;SDS011;59407;42.682;23.322;2023-07-31T11:13:29;2.65;;;0.80;;
71570;SDS011;59407;42.682;23.322;2023-07-31T11:15:55;2.47;;;0.90;;
71570;SDS011;59407;42.682;23.322;2023-07-31T11:18:24;3.10;;;0.93;;
71570;SDS011;59407;42.682;23.322;2023-07-31T11:20:52;2.55;;;1.10;;
71570;SDS011;59407;42.682;23.322;2023-07-31T11:23:18;2.87;;;0.90;;
71570;SDS011;59407;42.682;23.322;2023-07-31T11:25:46;2.30;;;0.80;;
71570;SDS011;59407;42.682;23.322;2023-07-31T11:28:12;4.27;;;0.93;;
71570;SDS011;59407;42.682;23.322;2023-07-31T11:30:39;2.25;;;0.90;;
71570;SDS011;59407;42.682;23.322;2023-07-31T11:33:10;2.55;;;1.05;;
71570;SDS011;59407;42.682;23.322;2023-07-31T11:35:40;2.17;;;0.73;;
71570;SDS011;59407;42.682;23.322;2023-07-31T11:38:09;2.83;;;1.10;;
71570;SDS011;59407;42.682;23.322;2023-07-31T11:40:41;2.63;;;0.90;;
71570;SDS011;59407;42.682;23.322;2023-07-31T11:43:08;2.08;;;0.88;;
71570;SDS011;59407;42.682;23.322;2023-07-31T11:45:36;2.80;;;1.10;;
71570;SDS011;59407;42.682;23.322;2023-07-31T11:48:02;3.70;;;1.33;;
71570;SDS011;59407;42.682;23.322;2023-07-31T11:50:29;4.70;;;1.52;;
71570;SDS011;59407;42.682;23.322;2023-07-31T11:52:59;3.67;;;1.53;;
71570;SDS011;59407;42.682;23.322;2023-07-31T11:55:26;3.30;;;0.93;;
71570;SDS011;59407;42.682;23.322;2023-07-31T11:57:51;3.63;;;1.10;;
71570;SDS011;59407;42.682;23.322;2023-07-31T12:00:18;3.17;;;1.00;;
71570;SDS011;59407;42.682;23.322;2023-07-31T12:02:44;3.10;;;1.03;;
71570;SDS011;59407;42.682;23.322;2023-07-31T12:05:12;2.75;;;1.13;;
71570;SDS011;59407;42.682;23.322;2023-07-31T12:07:44;3.15;;;1.30;;
71570;SDS011;59407;42.682;23.322;2023-07-31T12:10:11;3.73;;;1.33;;
71570;SDS011;59407;42.682;23.322;2023-07-31T12:12:36;3.63;;;1.65;;
71570;SDS011;59407;42.682;23.322;2023-07-31T12:15:02;4.17;;;2.13;;
71570;SDS011;59407;42.682;23.322;2023-07-31T12:17:27;3.95;;;1.90;;
71570;SDS011;59407;42.682;23.322;2023-07-31T12:19:53;4.10;;;1.90;;
71570;SDS011;59407;42.682;23.322;2023-07-31T12:22:19;3.43;;;1.43;;
71570;SDS011;59407;42.682;23.322;2023-07-31T12:24:46;4.65;;;2.40;;
71570;SDS011;59407;42.682;23.322;2023-07-31T12:27:14;4.88;;;2.50;;
71570;SDS011;59407;42.682;23.322;2023-07-31T12:29:40;5.05;;;2.47;;
71570;SDS011;59407;42.682;23.322;2023-07-31T12:32:23;3.40;;;1.57;;
71570;SDS011;59407;42.682;23.322;2023-07-31T12:34:50;5.18;;;2.40;;
71570;SDS011;59407;42.682;23.322;2023-07-31T12:37:16;3.72;;;1.95;;
71570;SDS011;59407;42.682;23.322;2023-07-31T12:39:42;3.28;;;1.65;;
71570;SDS011;59407;42.682;23.322;2023-07-31T12:42:08;3.90;;;1.77;;
71570;SDS011;59407;42.682;23.322;2023-07-31T12:44:33;3.70;;;1.67;;
71570;SDS011;59407;42.682;23.322;2023-07-31T12:46:58;3.90;;;2.10;;
71570;SDS011;59407;42.682;23.322;2023-07-31T12:49:24;4.28;;;1.83;;
71570;SDS011;59407;42.682;23.322;2023-07-31T12:51:49;4.73;;;2.40;;
71570;SDS011;59407;42.682;23.322;2023-07-31T12:54:15;4.53;;;2.53;;
71570;SDS011;59407;42.682;23.322;2023-07-31T12:56:40;5.05;;;2.72;;
71570;SDS011;59407;42.682;23.322;2023-07-31T12:59:06;4.27;;;2.40;;
71570;SDS011;59407;42.682;23.322;2023-07-31T13:01:32;5.03;;;2.67;;
71570;SDS011;59407;42.682;23.322;2023-07-31T13:03:57;4.75;;;2.42;;
71570;SDS011;59407;42.682;23.322;2023-07-31T13:06:23;4.87;;;2.73;;
71570;SDS011;59407;42.682;23.322;2023-07-31T13:08:49;5.60;;;2.65;;
71570;SDS011;59407;42.682;23.322;2023-07-31T13:11:15;4.40;;;2.50;;
71570;SDS011;59407;42.682;23.322;2023-07-31T13:13:40;4.78;;;2.80;;
71570;SDS011;59407;42.682;23.322;2023-07-31T13:16:05;5.60;;;2.80;;
71570;SDS011;59407;42.682;23.322;2023-07-31T13:18:31;4.97;;;2.80;;
71570;SDS011;59407;42.682;23.322;2023-07-31T13:20:57;5.70;;;3.03;;
71570;SDS011;59407;42.682;23.322;2023-07-31T13:23:23;5.13;;;2.53;;
71570;SDS011;59407;42.682;23.322;2023-07-31T13:25:49;4.43;;;2.50;;
71570;SDS011;59407;42.682;23.322;2023-07-31T13:28:14;6.27;;;4.67;;
71570;SDS011;59407;42.682;23.322;2023-07-31T13:30:39;3.42;;;1.95;;
71570;SDS011;59407;42.682;23.322;2023-07-31T13:33:05;3.30;;;1.63;;
71570;SDS011;59407;42.682;23.322;2023-07-31T13:35:31;4.25;;;2.20;;
71570;SDS011;59407;42.682;23.322;2023-07-31T13:37:56;3.97;;;2.27;;
71570;SDS011;59407;42.682;23.322;2023-07-31T13:40:23;3.87;;;1.47;;
71570;SDS011;59407;42.682;23.322;2023-07-31T13:42:50;3.10;;;1.70;;
71570;SDS011;59407;42.682;23.322;2023-07-31T13:45:15;4.25;;;2.30;;
71570;SDS011;59407;42.682;23.322;2023-07-31T13:47:41;4.00;;;2.03;;
71570;SDS011;59407;42.682;23.322;2023-07-31T13:50:06;4.93;;;2.60;;
71570;SDS011;59407;42.682;23.322;2023-07-31T13:52:33;3.67;;;2.10;;
71570;SDS011;59407;42.682;23.322;2023-07-31T13:54:59;3.78;;;2.05;;
71570;SDS011;59407;42.682;23.322;2023-07-31T13:57:25;3.57;;;1.57;;
71570;SDS011;59407;42.682;23.322;2023-07-31T13:59:51;4.10;;;2.00;;
71570;SDS011;59407;42.682;23.322;2023-07-31T14:02:17;3.88;;;2.05;;
71570;SDS011;59407;42.682;23.322;2023-07-31T14:04:44;5.73;;;2.43;;
71570;SDS011;59407;42.682;23.322;2023-07-31T14:07:11;3.97;;;1.77;;
71570;SDS011;59407;42.682;23.322;2023-07-31T14:09:36;3.50;;;1.90;;
71570;SDS011;59407;42.682;23.322;2023-07-31T14:12:03;4.10;;;1.90;;
71570;SDS011;59407;42.682;23.322;2023-07-31T14:14:30;3.50;;;1.92;;
71570;SDS011;59407;42.682;23.322;2023-07-31T14:16:55;3.40;;;1.83;;
71570;SDS011;59407;42.682;23.322;2023-07-31T14:19:23;5.03;;;2.20;;
71570;SDS011;59407;42.682;23.322;2023-07-31T14:21:50;3.75;;;1.98;;
71570;SDS011;59407;42.682;23.322;2023-07-31T14:24:16;4.32;;;1.83;;
71570;SDS011;59407;42.682;23.322;2023-07-31T14:26:41;3.90;;;2.03;;
71570;SDS011;59407;42.682;23.322;2023-07-31T14:29:06;4.03;;;2.00;;
71570;SDS011;59407;42.682;23.322;2023-07-31T14:31:32;4.30;;;1.97;;
71570;SDS011;59407;42.682;23.322;2023-07-31T14:33:57;3.95;;;2.10;;
71570;SDS011;59407;42.682;23.322;2023-07-31T14:36:23;3.47;;;1.98;;
71570;SDS011;59407;42.682;23.322;2023-07-31T14:38:49;4.80;;;2.10;;
71570;SDS011;59407;42.682;23.322;2023-07-31T14:41:14;4.20;;;2.17;;
71570;SDS011;59407;42.682;23.322;2023-07-31T14:43:41;4.25;;;1.98;;
71570;SDS011;59407;42.682;23.322;2023-07-31T14:46:06;3.73;;;2.20;;
71570;SDS011;59407;42.682;23.322;2023-07-31T14:48:32;2.90;;;1.70;;
71570;SDS011;59407;42.682;23.322;2023-07-31T14:50:57;3.50;;;1.43;;
71570;SDS011;59407;42.682;23.322;2023-07-31T14:53:22;5.43;;;1.97;;